Thomas Jefferson — WTEA — position and weather

sailwx.info

Track history (hours):
 
Tides and Currents Weather Stations Pressure Air Temp Water Temp Dewpoint Dewpoint Depression Visibility Wind Speed Wind Dir Waves Ship Positions

Oceanographic research ship Thomas Jefferson (USA)

Detailed information on ship capabilities available from University of Delaware's Ocean Information Center.

Last reported at 2017-Oct-19 00:59 UTC. Time now 2017-Oct-19 03:23 UTC.
Position N 30°42' W 081°12'.

Type: Dredging. MMSI: 369958000.

Wind from 030 at 23 knots

Air temperature 23.4 ° C
Dewpoint 20.3 ° C
Water temperature 25.6 ° C

Date/timePositionNaut miles runAvg speedWind from/ knotsBaromVisibWave heightAir tempDewpointWater temp
2017-Oct-19 00:59N 30°42' W 081°12'18 9.0 030 / 23 23.420.325.6
2017-Oct-18 22:59N 30°24' W 081°12'8 8.1 040 / 24 24.020.726.0
2017-Oct-18 22:00N 30°18' W 081°18'8 7.9 020 / 25 23.819.825.8
2017-Oct-18 21:00N 30°24' W 081°24'0 0.0 030 / 17 24.019.525.5
2017-Oct-18 20:00N 30°24' W 081°24'   030 / 18 24.619.725.5
2017-Oct-13 13:00N 30°18' W 081°12'0 0.0 050 / 16 26.9 27.1
2017-Oct-13 12:00N 30°18' W 081°12'288288.2 060 / 23 26.6 27.1
2017-Oct-13 11:00N 35°06' W 081°00'12 5.8 050 / 14 26.6 27.1
2017-Oct-13 09:00N 35°12' W 080°48'3636.3 080 / 12 26.7 27.5
2017-Oct-13 08:00N 34°36' W 080°42'300150.1 080 / 14 26.9 27.2
2017-Oct-13 06:00N 29°36' W 080°30'6 6.0 080 / 191016.010.8 27.122.5-27.4
2017-Oct-13 05:00N 29°30' W 080°30'711711.0 080 / 18 27.1 27.4
2017-Oct-13 04:00N 29°18' W 094°06'722722.5 080 / 21 27.2 27.7
2017-Oct-13 03:00N 29°12' W 080°18'294294.0 070 / 371014.810.8 27.325.7-27.7
2017-Oct-13 02:00N 34°06' W 080°18'761760.7 060 / 24 27.5 28.4
2017-Oct-13 01:00N 28°48' W 093°48'721720.7 060 / 22 27.7 28.1
2017-Oct-13 00:00N 28°42' W 080°06'1212.0 060 / 191013.7 5.4 27.726.8-28.4
2017-Oct-12 23:00N 28°30' W 080°06'24852484.6 060 / 26 27.8 28.6
2017-Oct-12 22:00N 69°00' W 093°12'21602160.3 060 / 23 27.8 28.8
2017-Oct-12 21:00N 33°00' W 094°06'788788.3 060 / 26 28.0 28.7
2017-Oct-12 20:00N 28°00' W 080°00'1313.1 060 / 21 27.5 28.5
2017-Oct-12 19:00N 27°48' W 079°54'1212.0 050 / 23 27.5 28.4
2017-Oct-12 18:00N 27°36' W 079°54'6 6.0 060 / 19 28.0 28.4
2017-Oct-12 17:00N 27°30' W 079°54'1313.1 060 / 22 27.8 28.8
2017-Oct-12 16:00N 27°18' W 079°48'1212.0 050 / 21 27.9 28.8
2017-Oct-12 15:00N 27°06' W 079°48'1313.1 050 / 25 27.7 28.9
2017-Oct-12 14:00N 26°54' W 079°42'6 6.0 040 / 22 27.2 28.9
2017-Oct-12 13:00N 26°48' W 079°42'1212.0 060 / 22 27.5 28.9
2017-Oct-12 12:00N 26°36' W 079°42'7 8.9 050 / 24 27.5 28.9
2017-Oct-12 11:15N 26°31' W 079°47'310.4
2017-Oct-12 11:00N 26°28' W 079°47'6625.8
2017-Oct-12 11:00N 26°24' W 079°42'510.3 060 / 19 27.0 28.9
2017-Oct-12 10:30N 26°23' W 079°47'510.3
2017-Oct-12 10:00N 26°18' W 079°48'0126.0
2017-Oct-12 10:00N 26°18' W 079°48'510.6 060 / 20 27.4 28.9
2017-Oct-12 09:30N 26°13' W 079°49'5 9.9
2017-Oct-12 09:00N 26°08' W 079°49'2218.2
2017-Oct-12 09:00N 26°06' W 079°48'3 6.5 030 / 20 26.7 29.0
2017-Oct-12 08:30N 26°03' W 079°50'510.1
2017-Oct-12 08:00N 25°58' W 079°50'4457.7
2017-Oct-12 08:00N 25°54' W 079°48'2 4.9 030 / 17 26.4 29.1
2017-Oct-12 07:30N 25°53' W 079°51'5 9.8
2017-Oct-12 07:00N 25°48' W 079°51'3173.5
2017-Oct-12 07:00N 25°48' W 079°48'510.8 040 / 22 27.5 29.1
2017-Oct-12 06:30N 25°44' W 079°52'5 9.4
2017-Oct-12 06:00N 25°39' W 079°52'5491.0
2017-Oct-12 06:00N 25°36' W 079°48'4 8.8 040 / 22 27.6 29.1
2017-Oct-12 05:30N 25°35' W 079°53'5 9.2
2017-Oct-12 05:00N 25°30' W 079°53'4351.8
2017-Oct-12 05:00N 25°30' W 079°48'812.4 040 / 22 27.7 29.0
2017-Oct-12 04:20N 25°24' W 079°54'617.5
2017-Oct-12 04:00N 25°18' W 079°54'8 8.1 050 / 21 27.8 29.1
2017-Oct-12 03:00N 25°12' W 080°00'1212.0 040 / 18 28.1 29.1
2017-Oct-12 02:00N 25°00' W 080°00'1313.2 050 / 23 28.3 29.1
2017-Oct-12 01:00N 24°48' W 080°06'8 8.1 060 / 20 27.8 29.1
2017-Oct-12 00:00N 24°42' W 080°12'1313.2 060 / 15 26.9 29.1
2017-Oct-11 23:00N 24°30' W 080°18'1313.2 060 / 17 27.8 29.1
2017-Oct-11 22:00N 24°18' W 080°24'8 8.1 070 / 18 28.1 29.1
2017-Oct-11 21:00N 24°12' W 080°30'1212.0 070 / 20 28.1 29.1
2017-Oct-11 20:00N 24°00' W 080°30'8 8.1 050 / 22 27.9 29.1
2017-Oct-11 19:00N 23°54' W 080°36'1313.2 070 / 19 28.2 29.1
2017-Oct-11 18:00N 23°42' W 080°42'8 8.1 070 / 20 28.1 29.1
2017-Oct-11 17:00N 23°36' W 080°48'5 5.5 060 / 21 28.4 29.1
2017-Oct-11 16:00N 23°36' W 080°42'8 8.1 040 / 21 28.4 28.9
2017-Oct-11 15:00N 23°30' W 080°36'1312.5 060 / 16 28.3 28.7
2017-Oct-11 14:00N 23°24' W 080°24'1111.0 040 / 17 27.7 28.6
2017-Oct-11 13:00N 23°24' W 080°12'1312.5 040 / 16 28.0 28.7
2017-Oct-11 12:00N 23°18' W 080°00'8 8.1 050 / 15 27.7 28.8
2017-Oct-11 11:00N 23°12' W 079°54'1111.0 040 / 17 27.6 28.7
2017-Oct-11 10:00N 23°12' W 079°42'1312.6 040 / 18 27.6 28.9
2017-Oct-11 09:00N 23°06' W 079°30'1312.6 050 / 20 27.8 28.9
2017-Oct-11 08:00N 23°00' W 079°18'6 5.5 040 / 18 27.7 28.9
2017-Oct-11 07:00N 23°00' W 079°12'1312.6 050 / 16 27.8 28.8
2017-Oct-11 06:00N 22°54' W 079°00'1312.6 060 / 18 28.1 28.9
2017-Oct-11 05:00N 22°48' W 078°48'6 5.5 060 / 16 28.0 28.7
2017-Oct-11 04:00N 22°48' W 078°42'1312.6 060 / 19 28.3 28.8
2017-Oct-11 03:00N 22°42' W 078°30'1312.6 060 / 16 28.3 28.5
2017-Oct-11 02:00N 22°36' W 078°18'1111.1 060 / 18 28.3 28.8
2017-Oct-11 01:00N 22°36' W 078°06'1312.6 060 / 20 28.4 29.0
2017-Oct-11 00:00N 22°30' W 077°54'1312.6 070 / 17 28.5 29.0
2017-Oct-10 23:00N 22°24' W 077°42'8 8.2 070 / 19 28.4 29.0
2017-Oct-10 22:00N 22°18' W 077°36'1616.4 070 / 18 28.9 29.2
2017-Oct-10 21:00N 22°06' W 077°24'8 8.2 070 / 18 29.4 29.2
2017-Oct-10 20:00N 22°00' W 077°18'1312.6 070 / 18 29.5 29.2
2017-Oct-10 19:00N 21°54' W 077°06'8 8.2 060 / 18 29.4 29.2
2017-Oct-10 18:00N 21°48' W 077°00'1312.7 070 / 15 30.5 29.2
2017-Oct-10 17:00N 21°42' W 076°48'0 0.0 070 / 18 30.1 29.2
2017-Oct-10 16:00N 21°42' W 076°48'0 0.0 070 / 22 28.9 29.2
2017-Oct-10 15:00N 21°42' W 076°48'0 0.0 080 / 22 28.9 29.2
2017-Oct-10 14:00N 21°42' W 076°48'0 0.0 080 / 23 28.7 29.2
2017-Oct-10 13:00N 21°42' W 076°48'6 5.6 080 / 23 28.8 29.2
2017-Oct-10 12:00N 21°42' W 076°42'0 0.0 090 / 25 28.7 29.1
2017-Oct-10 11:00N 21°42' W 076°42'0 0.0 080 / 23 28.4 28.9
2017-Oct-10 10:00N 21°42' W 076°42'6 6.0 090 / 24 28.4 29.0
2017-Oct-10 09:00N 21°36' W 076°42'11 5.6 080 / 27 27.7 29.0
2017-Oct-10 07:00N 21°36' W 076°30'8 8.2 080 / 18 27.4 29.1
2017-Oct-10 06:00N 21°30' W 076°24'1312.7 080 / 24 27.1 29.2
2017-Oct-10 05:00N 21°24' W 076°12'1111.2 090 / 22 28.2 29.2
2017-Oct-10 04:00N 21°24' W 076°00'1312.7 090 / 22 28.2 29.2
2017-Oct-10 03:00N 21°18' W 075°48'1312.7 080 / 21 28.3 29.5
2017-Oct-10 02:00N 21°12' W 075°36'1312.7 090 / 18 27.7 29.5
2017-Oct-10 01:00N 21°06' W 075°24'1111.2 100 / 23 27.9 29.4
2017-Oct-10 00:00N 21°06' W 075°12'1312.7 080 / 18 28.0 29.1
2017-Oct-09 23:00N 21°00' W 075°00'6 5.6 090 / 17 27.8 29.3
2017-Oct-09 22:00N 21°00' W 074°54'1312.7 080 / 14 29.1 29.7
2017-Oct-09 21:00N 20°54' W 074°42'1111.2 070 / 12 30.2 29.7
2017-Oct-09 20:00N 20°54' W 074°30'1312.7 060 / 10 27.8 29.6
2017-Oct-09 19:00N 20°48' W 074°18'1111.2 050 / 6 28.2 29.8
2017-Oct-09 18:00N 20°48' W 074°06'8 8.2 050 / 8 28.3 30.0
2017-Oct-09 17:00N 20°42' W 074°00'1111.2 080 / 10 30.0 30.1
2017-Oct-09 16:00N 20°42' W 073°48'1312.7 080 / 11 30.1 29.5
2017-Oct-09 15:00N 20°36' W 073°36'1111.2 080 / 10 29.3 29.5
2017-Oct-09 14:00N 20°36' W 073°24'1111.2 080 / 11 28.7 29.4
2017-Oct-09 13:00N 20°36' W 073°12'1111.2 080 / 7 28.9 28.8
2017-Oct-09 12:00N 20°36' W 073°00'1111.2 080 / 8 28.0 29.0
2017-Oct-09 11:00N 20°36' W 072°48'6 5.6 080 / 8 28.1 29.2
2017-Oct-09 10:00N 20°36' W 072°42'1111.2 070 / 7 28.0 29.7
2017-Oct-09 09:00N 20°36' W 072°30'1312.7 060 / 7 28.0 29.5
2017-Oct-09 08:00N 20°42' W 072°18'1111.2 050 / 5 27.9 29.4
2017-Oct-09 07:00N 20°42' W 072°06'1312.7 080 / 3 27.8 29.4
2017-Oct-09 06:00N 20°48' W 071°54'6 5.6 110 / 5 27.9 29.3
2017-Oct-09 05:00N 20°48' W 071°48'1312.7 100 / 7 27.8 29.2
2017-Oct-09 04:00N 20°54' W 071°36'1111.2 110 / 6 27.9 28.3
2017-Oct-09 03:00N 20°54' W 071°24'1312.7 110 / 9 27.9 28.4
2017-Oct-09 02:00N 21°00' W 071°12'8 8.2 090 / 11 27.8 28.8
2017-Oct-09 01:00N 21°06' W 071°06'   090 / 8 27.7 28.7
Track history (hours):
 
Tides and Currents Weather Stations Pressure Air Temp Water Temp Dewpoint Dewpoint Depression Visibility Wind Speed Wind Dir Waves Ship Positions

Oceanographic research ship Thomas Jefferson (USA)

Detailed information on ship capabilities available from University of Delaware's Ocean Information Center.

Last reported at 2017-Oct-19 00:59 UTC. Time now 2017-Oct-19 03:23 UTC.
Position N 30°42' W 081°12'.

Type: Dredging. MMSI: 369958000.

Wind from 030 at 23 knots

Air temperature 23.4 ° C
Dewpoint 20.3 ° C
Water temperature 25.6 ° C

Date/timePositionNaut miles runAvg speedWind from/ knotsBaromVisibWave heightAir tempDewpointWater temp
2017-Oct-19 00:59N 30°42' W 081°12'18 9.0 030 / 23 23.420.325.6
2017-Oct-18 22:59N 30°24' W 081°12'8 8.1 040 / 24 24.020.726.0
2017-Oct-18 22:00N 30°18' W 081°18'8 7.9 020 / 25 23.819.825.8
2017-Oct-18 21:00N 30°24' W 081°24'0 0.0 030 / 17 24.019.525.5
2017-Oct-18 20:00N 30°24' W 081°24'   030 / 18 24.619.725.5
2017-Oct-13 13:00N 30°18' W 081°12'0 0.0 050 / 16 26.9 27.1
2017-Oct-13 12:00N 30°18' W 081°12'288288.2 060 / 23 26.6 27.1
2017-Oct-13 11:00N 35°06' W 081°00'12 5.8 050 / 14 26.6 27.1
2017-Oct-13 09:00N 35°12' W 080°48'3636.3 080 / 12 26.7 27.5
2017-Oct-13 08:00N 34°36' W 080°42'300150.1 080 / 14 26.9 27.2
2017-Oct-13 06:00N 29°36' W 080°30'6 6.0 080 / 191016.010.8 27.122.5-27.4
2017-Oct-13 05:00N 29°30' W 080°30'711711.0 080 / 18 27.1 27.4
2017-Oct-13 04:00N 29°18' W 094°06'722722.5 080 / 21 27.2 27.7
2017-Oct-13 03:00N 29°12' W 080°18'294294.0 070 / 371014.810.8 27.325.7-27.7
2017-Oct-13 02:00N 34°06' W 080°18'761760.7 060 / 24 27.5 28.4
2017-Oct-13 01:00N 28°48' W 093°48'721720.7 060 / 22 27.7 28.1
2017-Oct-13 00:00N 28°42' W 080°06'1212.0 060 / 191013.7 5.4 27.726.8-28.4
2017-Oct-12 23:00N 28°30' W 080°06'24852484.6 060 / 26 27.8 28.6
2017-Oct-12 22:00N 69°00' W 093°12'21602160.3 060 / 23 27.8 28.8
2017-Oct-12 21:00N 33°00' W 094°06'788788.3 060 / 26 28.0 28.7
2017-Oct-12 20:00N 28°00' W 080°00'1313.1 060 / 21 27.5 28.5
2017-Oct-12 19:00N 27°48' W 079°54'1212.0 050 / 23 27.5 28.4
2017-Oct-12 18:00N 27°36' W 079°54'6 6.0 060 / 19 28.0 28.4
2017-Oct-12 17:00N 27°30' W 079°54'1313.1 060 / 22 27.8 28.8
2017-Oct-12 16:00N 27°18' W 079°48'1212.0 050 / 21 27.9 28.8
2017-Oct-12 15:00N 27°06' W 079°48'1313.1 050 / 25 27.7 28.9
2017-Oct-12 14:00N 26°54' W 079°42'6 6.0 040 / 22 27.2 28.9
2017-Oct-12 13:00N 26°48' W 079°42'1212.0 060 / 22 27.5 28.9
2017-Oct-12 12:00N 26°36' W 079°42'7 8.9 050 / 24 27.5 28.9
2017-Oct-12 11:15N 26°31' W 079°47'310.4
2017-Oct-12 11:00N 26°28' W 079°47'6625.8
2017-Oct-12 11:00N 26°24' W 079°42'510.3 060 / 19 27.0 28.9
2017-Oct-12 10:30N 26°23' W 079°47'510.3
2017-Oct-12 10:00N 26°18' W 079°48'0126.0
2017-Oct-12 10:00N 26°18' W 079°48'510.6 060 / 20 27.4 28.9
2017-Oct-12 09:30N 26°13' W 079°49'5 9.9
2017-Oct-12 09:00N 26°08' W 079°49'2218.2
2017-Oct-12 09:00N 26°06' W 079°48'3 6.5 030 / 20 26.7 29.0
2017-Oct-12 08:30N 26°03' W 079°50'510.1
2017-Oct-12 08:00N 25°58' W 079°50'4457.7
2017-Oct-12 08:00N 25°54' W 079°48'2 4.9 030 / 17 26.4 29.1
2017-Oct-12 07:30N 25°53' W 079°51'5 9.8
2017-Oct-12 07:00N 25°48' W 079°51'3173.5
2017-Oct-12 07:00N 25°48' W 079°48'510.8 040 / 22 27.5 29.1
2017-Oct-12 06:30N 25°44' W 079°52'5 9.4
2017-Oct-12 06:00N 25°39' W 079°52'5491.0
2017-Oct-12 06:00N 25°36' W 079°48'4 8.8 040 / 22 27.6 29.1
2017-Oct-12 05:30N 25°35' W 079°53'5 9.2
2017-Oct-12 05:00N 25°30' W 079°53'4351.8
2017-Oct-12 05:00N 25°30' W 079°48'812.4 040 / 22 27.7 29.0
2017-Oct-12 04:20N 25°24' W 079°54'617.5
2017-Oct-12 04:00N 25°18' W 079°54'8 8.1 050 / 21 27.8 29.1
2017-Oct-12 03:00N 25°12' W 080°00'1212.0 040 / 18 28.1 29.1
2017-Oct-12 02:00N 25°00' W 080°00'1313.2 050 / 23 28.3 29.1
2017-Oct-12 01:00N 24°48' W 080°06'8 8.1 060 / 20 27.8 29.1
2017-Oct-12 00:00N 24°42' W 080°12'1313.2 060 / 15 26.9 29.1
2017-Oct-11 23:00N 24°30' W 080°18'1313.2 060 / 17 27.8 29.1
2017-Oct-11 22:00N 24°18' W 080°24'8 8.1 070 / 18 28.1 29.1
2017-Oct-11 21:00N 24°12' W 080°30'1212.0 070 / 20 28.1 29.1
2017-Oct-11 20:00N 24°00' W 080°30'8 8.1 050 / 22 27.9 29.1
2017-Oct-11 19:00N 23°54' W 080°36'1313.2 070 / 19 28.2 29.1
2017-Oct-11 18:00N 23°42' W 080°42'8 8.1 070 / 20 28.1 29.1
2017-Oct-11 17:00N 23°36' W 080°48'5 5.5 060 / 21 28.4 29.1
2017-Oct-11 16:00N 23°36' W 080°42'8 8.1 040 / 21 28.4 28.9
2017-Oct-11 15:00N 23°30' W 080°36'1312.5 060 / 16 28.3 28.7
2017-Oct-11 14:00N 23°24' W 080°24'1111.0 040 / 17 27.7 28.6
2017-Oct-11 13:00N 23°24' W 080°12'1312.5 040 / 16 28.0 28.7
2017-Oct-11 12:00N 23°18' W 080°00'8 8.1 050 / 15 27.7 28.8
2017-Oct-11 11:00N 23°12' W 079°54'1111.0 040 / 17 27.6 28.7
2017-Oct-11 10:00N 23°12' W 079°42'1312.6 040 / 18 27.6 28.9
2017-Oct-11 09:00N 23°06' W 079°30'1312.6 050 / 20 27.8 28.9
2017-Oct-11 08:00N 23°00' W 079°18'6 5.5 040 / 18 27.7 28.9
2017-Oct-11 07:00N 23°00' W 079°12'1312.6 050 / 16 27.8 28.8
2017-Oct-11 06:00N 22°54' W 079°00'1312.6 060 / 18 28.1 28.9
2017-Oct-11 05:00N 22°48' W 078°48'6 5.5 060 / 16 28.0 28.7
2017-Oct-11 04:00N 22°48' W 078°42'1312.6 060 / 19 28.3 28.8
2017-Oct-11 03:00N 22°42' W 078°30'1312.6 060 / 16 28.3 28.5
2017-Oct-11 02:00N 22°36' W 078°18'1111.1 060 / 18 28.3 28.8
2017-Oct-11 01:00N 22°36' W 078°06'1312.6 060 / 20 28.4 29.0
2017-Oct-11 00:00N 22°30' W 077°54'1312.6 070 / 17 28.5 29.0
2017-Oct-10 23:00N 22°24' W 077°42'8 8.2 070 / 19 28.4 29.0
2017-Oct-10 22:00N 22°18' W 077°36'1616.4 070 / 18 28.9 29.2
2017-Oct-10 21:00N 22°06' W 077°24'8 8.2 070 / 18 29.4 29.2
2017-Oct-10 20:00N 22°00' W 077°18'1312.6 070 / 18 29.5 29.2
2017-Oct-10 19:00N 21°54' W 077°06'8 8.2 060 / 18 29.4 29.2
2017-Oct-10 18:00N 21°48' W 077°00'1312.7 070 / 15 30.5 29.2
2017-Oct-10 17:00N 21°42' W 076°48'0 0.0 070 / 18 30.1 29.2
2017-Oct-10 16:00N 21°42' W 076°48'0 0.0 070 / 22 28.9 29.2
2017-Oct-10 15:00N 21°42' W 076°48'0 0.0 080 / 22 28.9 29.2
2017-Oct-10 14:00N 21°42' W 076°48'0 0.0 080 / 23 28.7 29.2
2017-Oct-10 13:00N 21°42' W 076°48'6 5.6 080 / 23 28.8 29.2
2017-Oct-10 12:00N 21°42' W 076°42'0 0.0 090 / 25 28.7 29.1
2017-Oct-10 11:00N 21°42' W 076°42'0 0.0 080 / 23 28.4 28.9
2017-Oct-10 10:00N 21°42' W 076°42'6 6.0 090 / 24 28.4 29.0
2017-Oct-10 09:00N 21°36' W 076°42'11 5.6 080 / 27 27.7 29.0
2017-Oct-10 07:00N 21°36' W 076°30'8 8.2 080 / 18 27.4 29.1
2017-Oct-10 06:00N 21°30' W 076°24'1312.7 080 / 24 27.1 29.2
2017-Oct-10 05:00N 21°24' W 076°12'1111.2 090 / 22 28.2 29.2
2017-Oct-10 04:00N 21°24' W 076°00'1312.7 090 / 22 28.2 29.2
2017-Oct-10 03:00N 21°18' W 075°48'1312.7 080 / 21 28.3 29.5
2017-Oct-10 02:00N 21°12' W 075°36'1312.7 090 / 18 27.7 29.5
2017-Oct-10 01:00N 21°06' W 075°24'1111.2 100 / 23 27.9 29.4
2017-Oct-10 00:00N 21°06' W 075°12'1312.7 080 / 18 28.0 29.1
2017-Oct-09 23:00N 21°00' W 075°00'6 5.6 090 / 17 27.8 29.3
2017-Oct-09 22:00N 21°00' W 074°54'1312.7 080 / 14 29.1 29.7
2017-Oct-09 21:00N 20°54' W 074°42'1111.2 070 / 12 30.2 29.7
2017-Oct-09 20:00N 20°54' W 074°30'1312.7 060 / 10 27.8 29.6
2017-Oct-09 19:00N 20°48' W 074°18'1111.2 050 / 6 28.2 29.8
2017-Oct-09 18:00N 20°48' W 074°06'8 8.2 050 / 8 28.3 30.0
2017-Oct-09 17:00N 20°42' W 074°00'1111.2 080 / 10 30.0 30.1
2017-Oct-09 16:00N 20°42' W 073°48'1312.7 080 / 11 30.1 29.5
2017-Oct-09 15:00N 20°36' W 073°36'1111.2 080 / 10 29.3 29.5
2017-Oct-09 14:00N 20°36' W 073°24'1111.2 080 / 11 28.7 29.4
2017-Oct-09 13:00N 20°36' W 073°12'1111.2 080 / 7 28.9 28.8
2017-Oct-09 12:00N 20°36' W 073°00'1111.2 080 / 8 28.0 29.0
2017-Oct-09 11:00N 20°36' W 072°48'6 5.6 080 / 8 28.1 29.2
2017-Oct-09 10:00N 20°36' W 072°42'1111.2 070 / 7 28.0 29.7
2017-Oct-09 09:00N 20°36' W 072°30'1312.7 060 / 7 28.0 29.5
2017-Oct-09 08:00N 20°42' W 072°18'1111.2 050 / 5 27.9 29.4
2017-Oct-09 07:00N 20°42' W 072°06'1312.7 080 / 3 27.8 29.4
2017-Oct-09 06:00N 20°48' W 071°54'6 5.6 110 / 5 27.9 29.3
2017-Oct-09 05:00N 20°48' W 071°48'1312.7 100 / 7 27.8 29.2
2017-Oct-09 04:00N 20°54' W 071°36'1111.2 110 / 6 27.9 28.3
2017-Oct-09 03:00N 20°54' W 071°24'1312.7 110 / 9 27.9 28.4
2017-Oct-09 02:00N 21°00' W 071°12'8 8.2 090 / 11 27.8 28.8
2017-Oct-09 01:00N 21°06' W 071°06'   090 / 8 27.7 28.7

Dump ship's entire track history